createdAt,value
2018-03-03T00:02:04.339Z,93729.69
2018-03-03T00:04:56.652Z,93730.53
2018-03-03T00:07:27.817Z,93736.27
2018-03-03T00:09:56.975Z,93738.41
2018-03-03T00:12:26.155Z,93736.27
2018-03-03T00:15:00.084Z,93730.64
2018-03-03T00:20:06.622Z,93730.14
2018-03-03T00:22:41.743Z,93727.73
2018-03-03T00:25:10.915Z,93731.44
2018-03-03T00:27:45.585Z,93730.21
2018-03-03T00:30:14.777Z,93719.38
2018-03-03T00:32:43.955Z,93726.52
2018-03-03T00:35:13.159Z,93730.78
2018-03-03T00:37:42.328Z,93724.38
2018-03-03T00:40:11.515Z,93734.63
2018-03-03T00:42:40.687Z,93732.63
2018-03-03T00:45:09.842Z,93734.41
2018-03-03T00:47:47.254Z,93733.01
2018-03-03T00:50:16.424Z,93732.89
2018-03-03T00:58:04.834Z,93728.61
2018-03-03T01:00:34.062Z,93730.35
2018-03-03T01:03:04.258Z,93731.73
2018-03-03T01:05:35.411Z,93738.95
2018-03-03T01:08:04.615Z,93744.66
2018-03-03T01:10:37.795Z,93738.98
2018-03-03T01:13:07.003Z,93737.81
2018-03-03T01:15:36.204Z,93733.33
2018-03-03T01:18:05.361Z,93739.52
2018-03-03T01:20:36.562Z,93745.79
2018-03-03T01:23:05.763Z,93738.69
2018-03-03T01:25:34.976Z,93739.51
2018-03-03T01:28:04.143Z,93737.28
2018-03-03T01:30:33.279Z,93736.73
2018-03-03T01:33:02.468Z,93736.69
2018-03-03T01:35:31.671Z,93739.03
2018-03-03T01:43:16.620Z,93745.88
2018-03-03T01:46:04.167Z,93746.25
2018-03-03T01:48:41.246Z,93749.79
2018-03-03T01:51:28.248Z,93744.24
2018-03-03T01:53:58.331Z,93736.37
2018-03-03T01:59:07.023Z,93733.63
2018-03-03T02:01:38.335Z,93730.70
2018-03-03T02:04:07.508Z,93729.50
2018-03-03T02:06:36.679Z,93731.13
2018-03-03T02:09:11.022Z,93728.23
2018-03-03T02:11:40.168Z,93728.45
2018-03-03T02:16:44.604Z,93727.17
2018-03-03T02:19:13.810Z,93721.34
2018-03-03T02:21:43.068Z,93720.42
2018-03-03T02:24:21.043Z,93721.44
2018-03-03T02:27:02.121Z,93719.82
2018-03-03T02:29:31.292Z,93715.64
2018-03-03T02:32:13.297Z,93721.01
2018-03-03T02:35:12.408Z,93718.55
2018-03-03T02:37:41.624Z,93713.60
2018-03-03T02:40:12.703Z,93710.21
2018-03-03T02:45:45.193Z,93703.16
2018-03-03T02:48:14.399Z,93696.80
2018-03-03T02:50:44.588Z,93696.01
2018-03-03T02:53:13.755Z,93693.36
2018-03-03T02:55:43.008Z,93688.04
2018-03-03T02:58:12.155Z,93681.80
2018-03-03T03:00:54.481Z,93680.92
2018-03-03T03:03:23.636Z,93677.40
2018-03-03T03:06:12.085Z,93673.15
2018-03-03T03:08:50.338Z,93671.08
2018-03-03T03:11:19.554Z,93668.96
2018-03-03T03:13:58.616Z,93663.74
2018-03-03T03:16:27.787Z,93657.91
2018-03-03T03:18:56.986Z,93658.13
2018-03-03T03:21:27.075Z,93655.06
2018-03-03T03:23:56.293Z,93657.38
2018-03-03T03:26:25.472Z,93651.30
2018-03-03T03:31:29.841Z,93644.37
2018-03-03T03:33:59.955Z,93648.78
2018-03-03T03:36:29.121Z,93643.45
2018-03-03T03:39:01.420Z,93638.91
2018-03-03T03:41:30.592Z,93641.88
2018-03-03T03:43:59.798Z,93644.26
2018-03-03T03:46:28.976Z,93645.92
2018-03-03T03:49:03.566Z,93655.05
2018-03-03T03:51:38.578Z,93649.13
2018-03-03T03:56:46.214Z,93652.44
2018-03-03T03:59:15.419Z,93648.52
2018-03-03T04:01:58.389Z,93645.53
2018-03-03T04:04:27.579Z,93636.51
2018-03-03T04:07:11.724Z,93638.03
2018-03-03T04:09:46.500Z,93631.89
2018-03-03T04:12:15.703Z,93629.19
2018-03-03T04:14:52.418Z,93625.37
2018-03-03T04:17:21.580Z,93620.50
2018-03-03T04:20:12.795Z,93621.05
2018-03-03T04:22:43.951Z,93612.20
2018-03-03T04:25:13.135Z,93612.94
2018-03-03T04:27:49.603Z,93605.84
2018-03-03T04:30:18.764Z,93605.71
2018-03-03T04:32:52.831Z,93599.09
2018-03-03T04:35:22.019Z,93596.66
2018-03-03T04:37:53.126Z,93603.59
2018-03-03T04:40:22.318Z,93602.07
2018-03-03T04:42:56.989Z,93604.81
2018-03-03T04:45:26.199Z,93595.11
2018-03-03T04:47:57.340Z,93583.27
2018-03-03T04:50:26.528Z,93581.59
2018-03-03T04:53:13.189Z,93576.30
2018-03-03T04:55:46.277Z,93572.98
2018-03-03T05:01:18.218Z,93568.82
2018-03-03T05:03:50.403Z,93569.95
2018-03-03T05:06:22.062Z,93568.25
2018-03-03T05:08:51.260Z,93568.89
2018-03-03T05:11:20.452Z,93563.52
2018-03-03T05:13:57.234Z,93558.56
2018-03-03T05:16:27.239Z,93555.46
2018-03-03T05:19:19.140Z,93550.50
2018-03-03T05:21:56.959Z,93550.29
2018-03-03T05:30:22.375Z,93529.45
2018-03-03T05:35:34.596Z,93527.20
2018-03-03T05:41:18.640Z,93516.51
2018-03-03T05:43:56.384Z,93504.52
2018-03-03T05:46:31.057Z,93502.22
2018-03-03T05:55:21.147Z,93493.34
2018-03-03T05:58:09.539Z,93497.91
2018-03-03T06:12:12.239Z,93497.52
2018-03-03T06:17:19.451Z,93497.39
2018-03-03T06:19:52.272Z,93490.00
2018-03-03T06:22:21.457Z,93489.75
2018-03-03T06:24:51.555Z,93489.06
2018-03-03T06:27:20.702Z,93492.63
2018-03-03T06:29:49.954Z,93500.20
2018-03-03T06:32:19.204Z,93504.70
2018-03-03T06:37:23.564Z,93515.58
2018-03-03T06:40:06.518Z,93512.20
2018-03-03T06:42:35.687Z,93505.95
2018-03-03T06:45:09.460Z,93499.42
2018-03-03T06:47:40.582Z,93497.96
2018-03-03T06:50:13.103Z,93504.97
2018-03-03T06:52:55.952Z,93499.37
2018-03-03T06:55:25.140Z,93492.50
2018-03-03T06:58:12.443Z,93493.98
2018-03-03T07:00:41.694Z,93497.39
2018-03-03T07:03:10.824Z,93492.82
2018-03-03T07:05:53.155Z,93488.52
2018-03-03T07:08:22.346Z,93483.97
2018-03-03T07:11:04.667Z,93472.64
2018-03-03T07:13:35.793Z,93465.61
2018-03-03T07:16:12.543Z,93465.74
2018-03-03T07:21:16.941Z,93470.36
2018-03-03T07:23:51.587Z,93480.23
2018-03-03T07:26:20.760Z,93481.95
2018-03-03T07:29:00.296Z,93479.25
2018-03-03T07:31:29.465Z,93482.72
2018-03-03T07:34:07.019Z,93479.41
2018-03-03T07:36:36.275Z,93482.70
2018-03-03T07:39:05.543Z,93481.98
2018-03-03T07:41:35.691Z,93476.56
2018-03-03T07:44:08.187Z,93479.84
2018-03-03T07:46:37.388Z,93476.96
2018-03-03T07:49:06.567Z,93472.02
2018-03-03T07:51:36.883Z,93473.08
2018-03-03T07:54:13.695Z,93467.30
2018-03-03T07:59:47.789Z,93456.44
2018-03-03T08:02:16.991Z,93463.28
2018-03-03T08:05:02.052Z,93460.45
2018-03-03T08:07:31.425Z,93457.56
2018-03-03T08:10:16.608Z,93458.98
2018-03-03T08:15:24.107Z,93452.59
2018-03-03T08:17:53.267Z,93443.81
2018-03-03T08:20:23.372Z,93440.53
2018-03-03T08:22:52.531Z,93444.15
2018-03-03T08:27:58.991Z,93435.30
2018-03-03T08:30:28.335Z,93432.50
2018-03-03T08:34:14.672Z,93425.94
2018-03-03T08:36:48.448Z,93428.27
2018-03-03T08:39:17.643Z,93424.41
2018-03-03T08:41:48.747Z,93418.97
2018-03-03T08:44:20.959Z,93414.66
2018-03-03T08:46:50.114Z,93416.17
2018-03-03T08:49:19.260Z,93417.30
2018-03-03T08:51:48.465Z,93426.55
2018-03-03T08:56:53.935Z,93426.42
2018-03-03T09:01:58.274Z,93432.87
2018-03-03T09:07:02.615Z,93438.84
2018-03-03T09:09:32.719Z,93442.03
2018-03-03T09:12:01.858Z,93434.30
2018-03-03T09:14:31.020Z,93433.16
2018-03-03T09:17:00.235Z,93429.39
2018-03-03T09:19:29.524Z,93427.34
2018-03-03T09:21:58.673Z,93422.87
2018-03-03T09:24:27.819Z,93422.41
2018-03-03T09:26:56.986Z,93419.64
2018-03-03T09:32:01.383Z,93419.55
2018-03-03T09:37:09.554Z,93425.86
2018-03-03T09:39:48.416Z,93427.30
2018-03-03T09:42:22.694Z,93423.27
2018-03-03T09:44:57.705Z,93412.02
2018-03-03T09:50:10.536Z,93396.42
2018-03-03T09:55:21.934Z,93394.06
2018-03-03T09:57:59.491Z,93385.09
2018-03-03T10:00:37.019Z,93381.55
2018-03-03T10:03:11.521Z,93384.83
2018-03-03T10:08:21.664Z,93388.23
2018-03-03T10:10:54.593Z,93396.75
2018-03-03T10:13:23.847Z,93405.53
2018-03-03T10:15:58.143Z,93403.17
2018-03-03T10:18:31.022Z,93407.55
2018-03-03T10:21:04.631Z,93404.23
2018-03-03T10:23:46.421Z,93402.97
2018-03-03T10:28:56.315Z,93402.13
2018-03-03T10:31:34.198Z,93400.85
2018-03-03T10:34:03.401Z,93395.59
2018-03-03T10:36:38.280Z,93395.95
2018-03-03T10:39:17.163Z,93390.58
2018-03-03T10:41:46.330Z,93385.48
2018-03-03T10:44:18.994Z,93386.88
2018-03-03T10:46:48.291Z,93387.05
2018-03-03T10:51:52.632Z,93378.42
2018-03-03T10:56:59.083Z,93379.25
2018-03-03T10:59:33.588Z,93376.55
2018-03-03T11:02:07.439Z,93374.68
2018-03-03T11:04:36.592Z,93372.77
2018-03-03T11:07:05.745Z,93383.55
2018-03-03T11:09:35.855Z,93373.70
2018-03-03T11:12:05.032Z,93373.11
2018-03-03T11:14:34.183Z,93375.20
2018-03-03T11:17:03.371Z,93371.23
2018-03-03T11:22:09.776Z,93346.58
2018-03-03T11:24:38.939Z,93341.60
2018-03-03T11:27:12.224Z,93337.65
2018-03-03T11:29:41.518Z,93332.89
2018-03-03T11:32:10.897Z,93328.09
2018-03-03T11:34:40.408Z,93324.55
2018-03-03T11:37:15.382Z,93330.38
2018-03-03T11:39:44.545Z,93314.45
2018-03-03T11:42:16.017Z,93316.55
2018-03-03T11:44:46.742Z,93311.00
2018-03-03T11:47:15.939Z,93315.72
2018-03-03T11:49:45.090Z,93315.17
2018-03-03T11:52:14.303Z,93311.69
2018-03-03T11:54:43.467Z,93308.52
2018-03-03T11:57:12.629Z,93309.58
2018-03-03T11:59:41.783Z,93314.55
2018-03-03T12:02:10.945Z,93316.06
2018-03-03T12:04:40.537Z,93313.97
2018-03-03T12:07:09.716Z,93325.95
2018-03-03T12:09:38.877Z,93325.42
2018-03-03T12:12:08.020Z,93321.98
2018-03-03T12:14:37.185Z,93317.54
2018-03-03T12:17:07.329Z,93311.63
2018-03-03T12:19:36.505Z,93317.43
2018-03-03T12:22:05.669Z,93315.53
2018-03-03T12:24:34.831Z,93311.91
2018-03-03T12:27:03.994Z,93321.84
2018-03-03T12:29:33.143Z,93321.30
2018-03-03T12:32:09.628Z,93329.79
2018-03-03T12:34:38.779Z,93334.75
2018-03-03T12:37:07.963Z,93338.34
2018-03-03T12:39:37.123Z,93338.86
2018-03-03T12:42:06.308Z,93344.22
2018-03-03T12:44:35.531Z,93346.06
2018-03-03T12:47:04.671Z,93347.92
2018-03-03T12:49:33.840Z,93358.61
2018-03-03T12:52:04.975Z,93364.67
2018-03-03T12:57:12.488Z,93370.75
2018-03-03T12:59:41.620Z,93371.22
2018-03-03T13:02:10.812Z,93367.12
2018-03-03T13:04:39.963Z,93372.53
2018-03-03T13:07:10.127Z,93372.09
2018-03-03T13:09:39.306Z,93364.88
2018-03-03T13:12:13.331Z,93364.48
2018-03-03T13:14:42.507Z,93362.80
2018-03-03T13:17:12.639Z,93370.53
2018-03-03T13:19:41.796Z,93376.62
2018-03-03T13:22:10.999Z,93382.27
2018-03-03T13:24:40.123Z,93378.66
2018-03-03T13:27:11.328Z,93381.77
2018-03-03T13:29:41.130Z,93387.80
2018-03-03T13:34:46.023Z,93383.81
2018-03-03T13:37:15.200Z,93381.56
2018-03-03T13:39:44.397Z,93377.83
2018-03-03T13:42:15.518Z,93381.95
2018-03-03T13:44:47.811Z,93376.14
2018-03-03T13:52:28.234Z,93386.03
2018-03-03T13:54:57.427Z,93397.04
2018-03-03T13:57:27.523Z,93393.15
2018-03-03T14:00:01.634Z,93394.00
2018-03-03T14:02:30.798Z,93397.50
2018-03-03T14:05:00.056Z,93398.57
2018-03-03T14:07:29.228Z,93400.59
2018-03-03T14:09:58.453Z,93405.16
2018-03-03T14:12:31.060Z,93404.06
2018-03-03T14:15:00.235Z,93408.61
2018-03-03T14:17:32.208Z,93414.71
2018-03-03T14:20:06.425Z,93420.05
2018-03-03T14:22:35.579Z,93421.79
2018-03-03T14:25:04.742Z,93424.77
2018-03-03T14:27:33.894Z,93428.34
2018-03-03T14:30:03.086Z,93424.75
2018-03-03T14:32:32.304Z,93433.55
2018-03-03T14:35:14.430Z,93436.78
2018-03-03T14:37:44.652Z,93441.38
2018-03-03T14:40:14.739Z,93439.38
2018-03-03T14:42:43.968Z,93443.06
2018-03-03T14:47:48.362Z,93439.06
2018-03-03T14:50:23.137Z,93433.59
2018-03-03T14:55:32.357Z,93437.80
2018-03-03T14:58:05.882Z,93445.17
2018-03-03T15:00:39.592Z,93460.30
2018-03-03T15:03:13.569Z,93472.98
2018-03-03T15:05:49.095Z,93476.19
2018-03-03T15:11:21.370Z,93476.44
2018-03-03T15:16:31.729Z,93472.70
2018-03-03T15:21:39.021Z,93487.87
2018-03-03T15:26:47.032Z,93510.02
2018-03-03T15:29:25.641Z,93515.52
2018-03-03T15:32:02.185Z,93510.19
2018-03-03T15:34:36.310Z,93507.11
2018-03-03T15:40:04.297Z,93515.06
2018-03-03T15:42:36.463Z,93521.95
2018-03-03T15:45:06.958Z,93525.99
2018-03-03T15:47:41.003Z,93531.30
2018-03-03T15:50:15.869Z,93535.70
2018-03-03T15:55:23.671Z,93536.87
2018-03-03T15:57:54.302Z,93547.69
2018-03-03T16:00:25.574Z,93552.09
2018-03-03T16:05:30.824Z,93565.03
2018-03-03T16:08:09.462Z,93572.66
2018-03-03T16:10:43.291Z,93581.57
2018-03-03T16:13:17.488Z,93587.39
2018-03-03T16:15:52.636Z,93591.98
2018-03-03T16:18:26.719Z,93592.86
2018-03-03T16:20:57.803Z,93593.66
2018-03-03T16:23:28.039Z,93599.98
2018-03-03T16:28:33.814Z,93608.59
2018-03-03T16:33:43.549Z,93629.72
2018-03-03T16:36:21.167Z,93637.69
2018-03-03T16:38:54.791Z,93637.60
2018-03-03T16:41:28.678Z,93639.75
2018-03-03T16:44:03.114Z,93646.83
2018-03-03T16:46:37.459Z,93654.88
2018-03-03T16:49:11.101Z,93661.91
2018-03-03T16:51:46.034Z,93670.37
2018-03-03T16:57:25.091Z,93678.84
2018-03-03T17:02:34.841Z,93682.62
2018-03-03T17:05:08.314Z,93688.42
2018-03-03T17:07:41.667Z,93689.02
2018-03-03T17:10:24.709Z,93694.98
2018-03-03T17:15:37.704Z,93705.36
2018-03-03T17:23:28.327Z,93728.58
2018-03-03T17:26:02.701Z,93738.06
2018-03-03T17:28:37.879Z,93734.02
2018-03-03T17:33:58.362Z,93744.30
2018-03-03T17:36:33.381Z,93748.21
2018-03-03T17:39:19.832Z,93746.58
2018-03-03T17:44:30.391Z,93742.50
2018-03-03T17:47:09.131Z,93745.98
2018-03-03T17:49:44.272Z,93749.48
2018-03-03T17:52:22.268Z,93756.31
2018-03-03T17:57:32.585Z,93760.25
2018-03-03T18:00:06.127Z,93763.45
2018-03-03T18:02:39.736Z,93769.40
2018-03-03T18:08:29.131Z,93769.09
2018-03-03T18:13:42.262Z,93774.89
2018-03-03T18:16:16.615Z,93775.20
2018-03-03T18:18:50.670Z,93775.52
2018-03-03T18:21:50.126Z,93771.57
2018-03-03T18:27:04.022Z,93780.77
2018-03-03T18:29:37.331Z,93779.91
2018-03-03T18:32:06.509Z,93790.05
2018-03-03T18:34:35.707Z,93793.44
2018-03-03T18:37:05.770Z,93798.33
2018-03-03T18:39:34.926Z,93797.47
2018-03-03T18:42:04.884Z,93795.27
2018-03-03T18:44:43.636Z,93796.21
2018-03-03T18:47:12.910Z,93791.22
2018-03-03T18:49:45.230Z,93790.03
2018-03-03T18:52:23.226Z,93797.08
2018-03-03T18:54:52.389Z,93796.32
2018-03-03T18:57:28.954Z,93804.98
2018-03-03T18:59:58.119Z,93807.00
2018-03-03T19:05:19.380Z,93810.20
2018-03-03T19:07:48.576Z,93815.53
2018-03-03T19:10:46.302Z,93818.18
2018-03-03T19:13:15.522Z,93828.98
2018-03-03T19:18:22.404Z,93827.89
2018-03-03T19:20:51.842Z,93833.03
2018-03-03T19:23:23.011Z,93840.29
2018-03-03T19:25:52.551Z,93843.39
2018-03-03T19:28:36.587Z,93844.16
2018-03-03T19:31:05.745Z,93852.21
2018-03-03T19:33:34.880Z,93855.26
2018-03-03T19:36:04.045Z,93860.27
2018-03-03T19:38:33.460Z,93860.78
2018-03-03T19:41:02.637Z,93861.25
2018-03-03T19:43:31.802Z,93868.67
2018-03-03T19:46:00.984Z,93863.28
2018-03-03T19:48:30.191Z,93861.81
2018-03-03T19:51:09.888Z,93870.27
2018-03-03T19:53:39.208Z,93865.24
2018-03-03T19:56:13.247Z,93867.39
2018-03-03T19:58:50.359Z,93868.17
2018-03-03T20:01:19.517Z,93865.97
2018-03-03T20:06:25.876Z,93871.32
2018-03-03T20:08:55.040Z,93868.22
2018-03-03T20:11:24.215Z,93866.37
2018-03-03T20:13:54.314Z,93867.03
2018-03-03T20:16:23.472Z,93877.14
2018-03-03T20:18:55.950Z,93878.57
2018-03-03T20:21:25.093Z,93881.69
2018-03-03T20:23:55.477Z,93881.78
2018-03-03T20:26:24.650Z,93883.73
2018-03-03T20:31:31.496Z,93885.58
2018-03-03T20:34:00.674Z,93883.25
2018-03-03T20:36:29.846Z,93882.47
2018-03-03T20:39:03.862Z,93883.96
2018-03-03T20:41:46.564Z,93887.41
2018-03-03T20:44:15.754Z,93885.23
2018-03-03T20:47:06.656Z,93886.40
2018-03-03T20:52:13.504Z,93891.92
2018-03-03T20:54:54.047Z,93895.29
2018-03-03T20:57:23.236Z,93897.59
2018-03-03T21:00:06.335Z,93894.54
2018-03-03T21:05:16.679Z,93901.06
2018-03-03T21:07:49.347Z,93902.30
2018-03-03T21:10:26.420Z,93905.42
2018-03-03T21:12:56.545Z,93908.94
2018-03-03T21:15:25.761Z,93907.58
2018-03-03T21:17:55.111Z,93912.13
2018-03-03T21:20:31.720Z,93909.11
2018-03-03T21:23:02.008Z,93912.13
2018-03-03T21:25:34.670Z,93911.46
2018-03-03T21:28:03.926Z,93917.69
2018-03-03T21:30:33.978Z,93913.44
2018-03-03T21:33:03.139Z,93913.84
2018-03-03T21:35:34.295Z,93912.42
2018-03-03T21:38:05.595Z,93913.81
2018-03-03T21:40:34.817Z,93917.36
2018-03-03T21:45:39.337Z,93920.36
2018-03-03T21:50:50.200Z,93916.30
2018-03-03T21:53:21.414Z,93921.41
2018-03-03T21:55:50.579Z,93921.25
2018-03-03T21:58:19.732Z,93931.12
2018-03-03T22:00:49.071Z,93931.18
2018-03-03T22:03:18.228Z,93924.68
2018-03-03T22:05:59.825Z,93933.09
2018-03-03T22:08:29.581Z,93929.80
2018-03-03T22:13:35.064Z,93931.66
2018-03-03T22:16:06.387Z,93935.75
2018-03-03T22:18:35.652Z,93936.15
2018-03-03T22:21:21.436Z,93939.89
2018-03-03T22:24:08.070Z,93938.63
2018-03-03T22:29:12.749Z,93940.42
2018-03-03T22:32:00.124Z,93933.48
2018-03-03T22:34:29.453Z,93934.75
2018-03-03T22:36:58.700Z,93937.54
2018-03-03T22:39:27.883Z,93940.01
2018-03-03T22:41:57.067Z,93937.66
2018-03-03T22:44:26.313Z,93943.03
2018-03-03T22:47:14.027Z,93947.88
2018-03-03T22:50:05.516Z,93948.22
2018-03-03T22:52:34.907Z,93947.66
2018-03-03T22:55:16.526Z,93946.41
2018-03-03T22:57:54.816Z,93944.18
2018-03-03T23:00:24.191Z,93951.69
2018-03-03T23:02:53.828Z,93954.25
2018-03-03T23:05:23.338Z,93954.50
2018-03-03T23:07:53.606Z,93955.55
2018-03-03T23:10:22.884Z,93957.56
2018-03-03T23:13:05.160Z,93949.02
2018-03-03T23:15:34.803Z,93950.56
2018-03-03T23:18:09.711Z,93951.42
2018-03-03T23:20:38.925Z,93954.38
2018-03-03T23:26:16.894Z,93954.25
2018-03-03T23:28:50.409Z,93953.66
2018-03-03T23:31:19.580Z,93958.53
2018-03-03T23:33:48.843Z,93955.45
2018-03-03T23:36:18.952Z,93960.05
2018-03-03T23:38:56.635Z,93958.04
2018-03-03T23:41:25.795Z,93959.38
2018-03-03T23:44:02.619Z,93961.39
2018-03-03T23:46:32.254Z,93965.33
2018-03-03T23:49:08.455Z,93964.80
2018-03-03T23:54:16.795Z,93962.63
2018-03-03T23:56:46.323Z,93961.66
2018-03-03T23:59:15.531Z,93969.21
